Terminal Aerodrome Forecast
Issued by NWS Bismarck, ND

Home | Current Version | Previous Version | Graphics & Text | Print | Product List | Glossary On
Versions: 1 2 3 4 5 6 7 8 9 10 11 12 13 14 15 16 17
000
FTUS43 KBIS 232332
TAFBIS
TAF
KBIS 232332Z 2400/2424 08019KT P6SM OVC015
     FM240900 06015KT P6SM -RA OVC008
     FM241200 04008KT 4SM -RA BR OVC008
     FM241500 01009KT P6SM VCSH OVC008
     FM241900 35012KT P6SM OVC012=

USA.gov is the U.S. government's official web portal to all federal, state and local government web resources and services.